createdAt,value
2022-08-19T00:01:13.101Z,92.20
2022-08-19T00:04:37.712Z,92.10
2022-08-19T00:08:00.073Z,92.30
2022-08-19T00:11:25.210Z,92.10
2022-08-19T00:14:48.127Z,92.10
2022-08-19T00:18:10.326Z,92.20
2022-08-19T00:21:32.659Z,92.10
2022-08-19T00:24:55.172Z,92.10
2022-08-19T00:28:17.543Z,92.00
2022-08-19T00:31:40.259Z,92.10
2022-08-19T00:35:02.741Z,91.90
2022-08-19T00:38:36.314Z,92.10
2022-08-19T00:42:00.375Z,92.20
2022-08-19T00:45:26.342Z,92.40
2022-08-19T00:48:48.538Z,92.40
2022-08-19T00:52:15.921Z,92.20
2022-08-19T00:55:40.094Z,92.30
2022-08-19T00:59:10.043Z,92.50
2022-08-19T01:02:33.758Z,92.40
2022-08-19T01:05:57.169Z,92.40
2022-08-19T01:09:19.415Z,92.50
2022-08-19T01:12:42.503Z,92.50
2022-08-19T01:16:09.161Z,92.70
2022-08-19T01:19:43.919Z,92.70
2022-08-19T01:23:07.214Z,92.70
2022-08-19T01:26:29.473Z,92.60
2022-08-19T01:29:53.632Z,92.50
2022-08-19T01:33:15.843Z,92.40
2022-08-19T01:36:42.922Z,92.50
2022-08-19T01:40:09.347Z,92.50
2022-08-19T01:43:31.741Z,92.50
2022-08-19T01:46:54.245Z,92.60
2022-08-19T01:50:16.912Z,92.60
2022-08-19T01:53:39.705Z,92.60
2022-08-19T01:57:06.692Z,92.70
2022-08-19T02:00:32.178Z,92.70
2022-08-19T02:03:55.037Z,92.80
2022-08-19T02:07:22.669Z,93.00
2022-08-19T02:10:45.650Z,92.90
2022-08-19T02:14:09.077Z,93.10
2022-08-19T02:17:32.046Z,93.20
2022-08-19T02:20:54.356Z,93.30
2022-08-19T02:24:16.538Z,93.80
2022-08-19T02:27:39.685Z,93.40
2022-08-19T02:31:03.412Z,93.50
2022-08-19T02:34:25.933Z,93.60
2022-08-19T02:38:07.010Z,93.50
2022-08-19T02:41:32.692Z,93.60
2022-08-19T02:44:56.736Z,93.70
2022-08-19T02:48:22.060Z,93.70
2022-08-19T02:51:46.158Z,93.80
2022-08-19T02:55:09.404Z,93.90
2022-08-19T02:58:31.622Z,94.00
2022-08-19T03:01:53.830Z,93.90
2022-08-19T03:05:16.143Z,94.00
2022-08-19T03:08:39.398Z,94.20
2022-08-19T03:12:01.569Z,94.40
2022-08-19T03:15:23.765Z,94.20
2022-08-19T03:18:46.540Z,94.10
2022-08-19T03:22:08.928Z,94.00
2022-08-19T03:25:31.080Z,94.20
2022-08-19T03:28:57.881Z,94.30
2022-08-19T03:32:32.533Z,94.30
2022-08-19T03:36:17.118Z,94.30
2022-08-19T03:39:41.347Z,94.30
2022-08-19T03:43:04.018Z,94.30
2022-08-19T03:46:30.894Z,94.30
2022-08-19T03:49:53.261Z,94.50
2022-08-19T03:53:16.249Z,94.70
2022-08-19T03:56:40.382Z,94.70
2022-08-19T04:00:13.652Z,94.80
2022-08-19T04:03:37.001Z,94.70
2022-08-19T04:06:59.664Z,94.60
2022-08-19T04:10:21.854Z,94.90
2022-08-19T04:13:46.785Z,95.20
2022-08-19T04:17:08.850Z,95.10
2022-08-19T04:20:31.090Z,95.10
2022-08-19T04:23:54.308Z,95.30
2022-08-19T04:27:18.154Z,95.80
2022-08-19T04:30:48.386Z,95.80
2022-08-19T04:34:13.792Z,96.10
2022-08-19T04:37:36.062Z,96.40
2022-08-19T04:41:16.674Z,96.40
2022-08-19T04:44:46.182Z,96.20
2022-08-19T04:48:27.206Z,96.10
2022-08-19T04:51:51.220Z,96.20
2022-08-19T04:55:13.615Z,96.30
2022-08-19T04:58:37.786Z,96.30
2022-08-19T05:01:59.975Z,96.10
2022-08-19T05:05:22.398Z,96.10
2022-08-19T05:08:45.266Z,96.20
2022-08-19T05:12:07.697Z,97.80
2022-08-19T05:15:29.921Z,99.10
2022-08-19T05:19:10.706Z,99.70
2022-08-19T05:22:33.901Z,99.90
2022-08-19T05:25:56.145Z,99.90
2022-08-19T05:29:21.275Z,99.90
2022-08-19T05:32:44.870Z,99.90
2022-08-19T05:36:08.303Z,99.90
2022-08-19T05:39:33.517Z,99.90
2022-08-19T05:42:55.903Z,99.90
2022-08-19T05:46:27.813Z,99.50
2022-08-19T05:49:53.192Z,99.30
2022-08-19T05:53:17.277Z,99.30
2022-08-19T05:56:39.779Z,99.10
2022-08-19T06:00:03.231Z,98.80
2022-08-19T06:03:34.309Z,98.70
2022-08-19T06:06:57.267Z,98.70
2022-08-19T06:10:19.580Z,99.10
2022-08-19T06:13:41.908Z,98.80
2022-08-19T06:17:07.144Z,98.80
2022-08-19T06:20:54.637Z,99.00
2022-08-19T06:24:15.394Z,98.70
2022-08-19T06:27:48.294Z,99.00
2022-08-19T06:31:17.941Z,99.40
2022-08-19T06:34:40.490Z,99.50
2022-08-19T06:38:04.281Z,99.90
2022-08-19T06:41:27.484Z,99.90
2022-08-19T06:44:50.215Z,99.90
2022-08-19T06:48:15.782Z,99.90
2022-08-19T06:51:45.016Z,99.90
2022-08-19T06:55:08.083Z,99.90
2022-08-19T06:58:33.751Z,99.90
2022-08-19T07:01:57.696Z,99.90
2022-08-19T07:05:20.428Z,99.90
2022-08-19T07:08:43.897Z,99.90
2022-08-19T07:12:08.610Z,99.90
2022-08-19T07:15:31.835Z,99.90
2022-08-19T07:18:54.266Z,99.90
2022-08-19T07:22:17.320Z,99.90
2022-08-19T07:25:40.089Z,99.90
2022-08-19T07:29:03.426Z,99.90
2022-08-19T07:32:29.039Z,99.90
2022-08-19T07:35:51.234Z,99.90
2022-08-19T07:39:17.502Z,99.90
2022-08-19T07:42:39.800Z,99.90
2022-08-19T07:46:02.094Z,99.90
2022-08-19T07:49:25.384Z,99.90
2022-08-19T07:52:50.386Z,99.90
2022-08-19T07:56:15.765Z,99.90
2022-08-19T07:59:38.402Z,99.90
2022-08-19T08:03:00.789Z,99.90
2022-08-19T08:06:41.960Z,99.90
2022-08-19T08:10:08.571Z,99.90
2022-08-19T08:13:43.616Z,99.90
2022-08-19T08:17:10.760Z,99.90
2022-08-19T08:20:33.650Z,99.90
2022-08-19T08:23:56.690Z,99.90
2022-08-19T08:27:20.901Z,99.90
2022-08-19T08:30:50.804Z,99.90
2022-08-19T08:34:14.274Z,99.90
2022-08-19T08:37:38.068Z,99.90
2022-08-19T08:41:07.517Z,99.90
2022-08-19T08:44:35.459Z,99.90
2022-08-19T08:48:04.978Z,99.90
2022-08-19T08:51:59.472Z,99.90
2022-08-19T08:55:25.687Z,99.90
2022-08-19T08:58:59.202Z,99.90
2022-08-19T09:02:21.607Z,99.90
2022-08-19T09:06:00.814Z,99.90
2022-08-19T09:09:38.054Z,99.90
2022-08-19T09:13:37.255Z,99.90
2022-08-19T09:17:00.506Z,99.90
2022-08-19T09:20:26.275Z,99.90
2022-08-19T09:23:51.002Z,99.90
2022-08-19T09:27:18.392Z,99.90
2022-08-19T09:30:42.459Z,99.90
2022-08-19T09:34:06.016Z,99.90
2022-08-19T09:37:28.829Z,99.90
2022-08-19T09:40:51.480Z,99.90
2022-08-19T09:44:14.256Z,99.90
2022-08-19T09:47:38.970Z,99.90
2022-08-19T09:51:24.346Z,99.90
2022-08-19T09:54:46.722Z,99.90
2022-08-19T09:58:14.285Z,99.90
2022-08-19T10:01:36.989Z,99.90
2022-08-19T10:05:18.261Z,99.90
2022-08-19T10:08:50.420Z,99.90
2022-08-19T10:12:12.960Z,99.90
2022-08-19T10:15:47.714Z,99.90
2022-08-19T10:19:11.558Z,99.90
2022-08-19T10:22:36.625Z,99.90
2022-08-19T10:26:01.213Z,99.90
2022-08-19T10:29:32.225Z,99.90
2022-08-19T10:32:55.502Z,99.90
2022-08-19T10:36:20.529Z,99.90
2022-08-19T10:39:43.607Z,99.90
2022-08-19T10:43:06.085Z,99.90
2022-08-19T10:46:32.315Z,99.90
2022-08-19T10:50:14.441Z,99.90
2022-08-19T10:53:36.779Z,99.90
2022-08-19T10:56:59.169Z,99.90
2022-08-19T11:00:23.667Z,99.90
2022-08-19T11:03:46.363Z,99.90
2022-08-19T11:07:09.581Z,99.90
2022-08-19T11:10:31.778Z,99.90
2022-08-19T11:13:54.025Z,99.90
2022-08-19T11:17:16.405Z,99.90
2022-08-19T11:20:38.675Z,99.90
2022-08-19T11:24:04.284Z,99.90
2022-08-19T11:27:26.809Z,99.90
2022-08-19T11:30:49.060Z,99.90
2022-08-19T11:34:14.534Z,99.90
2022-08-19T11:37:39.214Z,99.90
2022-08-19T11:41:05.946Z,99.90
2022-08-19T11:44:31.294Z,99.90
2022-08-19T11:47:54.202Z,99.90
2022-08-19T11:51:20.245Z,99.90
2022-08-19T11:54:42.478Z,99.90
2022-08-19T11:58:07.022Z,99.90
2022-08-19T12:01:43.415Z,99.90
2022-08-19T12:05:11.495Z,99.90
2022-08-19T12:08:34.746Z,99.90
2022-08-19T12:11:57.173Z,99.90
2022-08-19T12:15:19.454Z,99.90
2022-08-19T12:18:44.758Z,99.90
2022-08-19T12:22:08.541Z,99.90
2022-08-19T12:25:31.789Z,99.90
2022-08-19T12:28:54.505Z,99.90
2022-08-19T12:32:17.850Z,99.90
2022-08-19T12:35:45.775Z,99.90
2022-08-19T12:39:09.413Z,99.90
2022-08-19T12:42:33.477Z,99.90
2022-08-19T12:45:55.673Z,99.90
2022-08-19T12:49:52.286Z,99.90
2022-08-19T12:53:01.999Z,99.90
2022-08-19T12:56:24.213Z,99.90
2022-08-19T12:59:46.487Z,99.90
2022-08-19T13:03:08.682Z,99.90
2022-08-19T13:06:31.072Z,99.90
2022-08-19T13:09:54.350Z,99.90
2022-08-19T13:13:16.625Z,99.90
2022-08-19T13:16:38.860Z,99.90
2022-08-19T13:20:01.125Z,99.90
2022-08-19T13:23:23.431Z,99.90
2022-08-19T13:26:45.615Z,99.90
2022-08-19T13:30:31.687Z,99.90
2022-08-19T13:33:53.879Z,99.90
2022-08-19T13:37:16.150Z,99.90
2022-08-19T13:40:39.558Z,99.90
2022-08-19T13:44:04.691Z,99.90
2022-08-19T13:47:26.869Z,99.90
2022-08-19T13:50:49.345Z,99.90
2022-08-19T13:54:13.098Z,99.90
2022-08-19T13:57:36.296Z,99.90
2022-08-19T14:01:00.151Z,99.90
2022-08-19T14:04:22.414Z,99.90
2022-08-19T14:07:44.741Z,99.90
2022-08-19T14:11:06.982Z,99.90
2022-08-19T14:14:30.036Z,99.90
2022-08-19T14:17:52.715Z,99.90
2022-08-19T14:21:18.570Z,99.90
2022-08-19T14:24:41.064Z,99.90
2022-08-19T14:28:10.269Z,99.90
2022-08-19T14:31:32.459Z,99.90
2022-08-19T14:34:55.454Z,99.90
2022-08-19T14:38:22.127Z,99.90
2022-08-19T14:41:53.895Z,99.90
2022-08-19T14:45:16.152Z,99.90
2022-08-19T14:48:41.617Z,99.90
2022-08-19T14:52:04.945Z,99.90
2022-08-19T14:55:27.287Z,99.90
2022-08-19T14:58:52.622Z,99.90
2022-08-19T15:02:33.780Z,99.90
2022-08-19T15:05:58.602Z,99.90
2022-08-19T15:09:21.451Z,99.90
2022-08-19T15:12:43.676Z,99.90
2022-08-19T15:16:06.149Z,99.90
2022-08-19T15:19:40.495Z,99.90
2022-08-19T15:23:02.960Z,99.90
2022-08-19T15:26:28.473Z,99.90
2022-08-19T15:29:50.705Z,99.90
2022-08-19T15:33:21.032Z,99.90
2022-08-19T15:36:43.409Z,99.90
2022-08-19T15:40:08.945Z,99.90
2022-08-19T15:43:32.102Z,99.90
2022-08-19T15:46:54.464Z,99.90
2022-08-19T15:50:21.257Z,99.90
2022-08-19T15:53:44.021Z,99.90
2022-08-19T15:57:24.749Z,99.90
2022-08-19T16:01:05.504Z,99.90
2022-08-19T16:04:53.413Z,99.90
2022-08-19T16:08:15.756Z,99.90
2022-08-19T16:11:39.584Z,99.90
2022-08-19T16:15:02.137Z,99.90
2022-08-19T16:18:25.003Z,99.90
2022-08-19T16:21:50.602Z,99.90
2022-08-19T16:25:13.833Z,99.90
2022-08-19T16:28:36.204Z,99.90
2022-08-19T16:31:58.366Z,99.90
2022-08-19T16:35:21.761Z,99.90
2022-08-19T16:38:46.327Z,99.90
2022-08-19T16:42:11.809Z,99.90
2022-08-19T16:45:34.333Z,99.90
2022-08-19T16:48:56.571Z,99.90
2022-08-19T16:52:19.838Z,99.90
2022-08-19T16:55:42.345Z,99.90
2022-08-19T16:59:04.747Z,99.90
2022-08-19T17:02:29.768Z,99.90
2022-08-19T17:05:55.291Z,99.90
2022-08-19T17:09:18.781Z,99.90
2022-08-19T17:12:48.506Z,99.90
2022-08-19T17:16:10.817Z,99.90
2022-08-19T17:19:33.214Z,99.90
2022-08-19T17:22:56.979Z,99.90
2022-08-19T17:26:19.206Z,99.90
2022-08-19T17:29:45.081Z,99.90
2022-08-19T17:33:09.760Z,99.90
2022-08-19T17:36:33.901Z,99.90
2022-08-19T17:39:56.215Z,99.90
2022-08-19T17:43:32.925Z,99.90
2022-08-19T17:46:57.102Z,99.90
2022-08-19T17:50:20.122Z,99.90
2022-08-19T17:53:42.656Z,99.90
2022-08-19T17:57:05.086Z,99.90
2022-08-19T18:00:27.364Z,99.90
2022-08-19T18:03:50.837Z,99.90
2022-08-19T18:07:13.162Z,99.50
2022-08-19T18:10:35.605Z,99.80
2022-08-19T18:13:57.814Z,99.70
2022-08-19T18:17:22.952Z,99.50
2022-08-19T18:24:08.733Z,99.70
2022-08-19T18:27:31.172Z,98.00
2022-08-19T18:30:53.525Z,98.40
2022-08-19T18:34:15.761Z,97.80
2022-08-19T18:37:39.502Z,96.90
2022-08-19T18:41:21.031Z,96.80
2022-08-19T18:45:01.601Z,98.10
2022-08-19T18:48:42.572Z,99.20
2022-08-19T18:52:04.872Z,99.60
2022-08-19T18:55:28.359Z,99.90
2022-08-19T18:58:50.692Z,99.90
2022-08-19T19:02:15.407Z,99.90
2022-08-19T19:05:39.762Z,99.90
2022-08-19T19:09:02.070Z,99.90
2022-08-19T19:12:29.070Z,99.90
2022-08-19T19:15:51.576Z,99.90
2022-08-19T19:19:14.704Z,99.90
2022-08-19T19:22:41.729Z,99.90
2022-08-19T19:26:03.945Z,99.90
2022-08-19T19:29:26.547Z,99.90
2022-08-19T19:32:49.869Z,99.90
2022-08-19T19:39:46.093Z,99.90
2022-08-19T19:43:09.561Z,99.90
2022-08-19T19:46:32.815Z,99.30
2022-08-19T19:53:37.889Z,98.80
2022-08-19T19:57:00.237Z,98.60
2022-08-19T20:00:22.657Z,98.70
2022-08-19T20:03:45.589Z,98.40
2022-08-19T20:07:07.885Z,98.10
2022-08-19T20:10:32.291Z,98.00
2022-08-19T20:13:54.536Z,97.90
2022-08-19T20:17:16.772Z,97.70
2022-08-19T20:20:39.110Z,97.70
2022-08-19T20:24:09.751Z,97.60
2022-08-19T20:27:37.177Z,97.70
2022-08-19T20:31:02.918Z,97.50
2022-08-19T20:34:28.000Z,97.40
2022-08-19T20:37:53.861Z,97.20
2022-08-19T20:41:20.958Z,96.90
2022-08-19T20:44:43.832Z,96.70
2022-08-19T20:48:08.177Z,96.70
2022-08-19T20:51:31.722Z,96.70
2022-08-19T20:54:53.981Z,96.40
2022-08-19T20:58:18.158Z,96.20
2022-08-19T21:01:40.486Z,96.10
2022-08-19T21:05:02.856Z,96.20
2022-08-19T21:08:27.629Z,95.90
2022-08-19T21:11:50.225Z,95.80
2022-08-19T21:15:12.592Z,95.70
2022-08-19T21:18:35.541Z,95.30
2022-08-19T21:21:57.827Z,94.90
2022-08-19T21:25:21.071Z,95.10
2022-08-19T21:28:43.405Z,94.00
2022-08-19T21:32:06.266Z,94.80
2022-08-19T21:35:29.476Z,94.80
2022-08-19T21:38:51.768Z,94.40
2022-08-19T21:42:14.455Z,94.40
2022-08-19T21:45:36.963Z,94.40
2022-08-19T21:48:59.229Z,94.20
2022-08-19T21:52:23.582Z,94.00
2022-08-19T21:55:53.123Z,94.30
2022-08-19T21:59:17.029Z,94.30
2022-08-19T22:02:39.318Z,94.20
2022-08-19T22:06:01.615Z,94.00
2022-08-19T22:09:23.891Z,93.80
2022-08-19T22:12:51.572Z,94.00
2022-08-19T22:16:14.230Z,94.00
2022-08-19T22:19:36.470Z,94.00
2022-08-19T22:23:05.646Z,93.90
2022-08-19T22:26:27.961Z,93.70
2022-08-19T22:29:52.658Z,93.50
2022-08-19T22:33:18.630Z,93.50
2022-08-19T22:36:40.903Z,93.40
2022-08-19T22:40:05.554Z,93.30
2022-08-19T22:43:31.430Z,93.20
2022-08-19T22:46:53.744Z,93.20
2022-08-19T22:50:16.036Z,93.20
2022-08-19T22:53:40.896Z,93.30
2022-08-19T22:57:03.165Z,93.40
2022-08-19T23:00:27.497Z,93.20
2022-08-19T23:03:49.862Z,93.10
2022-08-19T23:07:12.135Z,93.00
2022-08-19T23:10:34.488Z,93.20
2022-08-19T23:13:56.742Z,93.30
2022-08-19T23:17:20.573Z,93.40
2022-08-19T23:20:44.725Z,93.40
2022-08-19T23:24:07.879Z,93.30
2022-08-19T23:27:48.764Z,93.40
2022-08-19T23:31:11.497Z,93.30
2022-08-19T23:34:33.822Z,93.10
2022-08-19T23:37:57.465Z,92.90
2022-08-19T23:41:23.095Z,92.80
2022-08-19T23:44:52.033Z,92.70
2022-08-19T23:48:16.353Z,92.70
2022-08-19T23:51:38.604Z,92.90
2022-08-19T23:55:02.722Z,93.00
2022-08-19T23:58:27.814Z,92.90
